»·PEaware :: NKS250 KATL-KBOS

NKS250 :: KATL-KBOS

FLIGHT INFORMATION

Flight Status: Arrived
Operator:
Spirit Airlines
More flights by this operator :: More flights under this callsign
Pilot: Andrew J. (13363)
Aircraft: AIRBUS A321
(A321)
More flights by this aircraft type
Origin: KATL Hartsfield-Jackson Atlanta
United States
Destination: KBOS Logan Intl
United States
More flights between these airports :: More routes between these airports
Route: PLMMR2 SPA Q22 BEARI THHMP MAAXY OOD J42 RBV J222 JFK ROBUC3
File this flight plan on PilotEdge
Remarks:
Altitude:
(Current/Filed)
35,000ft
Speed:
(Current/Filed)
453kts
Departed: 16-Oct-20 10:29 AM
Arrived: 16-Oct-20 12:15 PM
Distance/Time
Traveled:
820nm/1:45
Distance/Time
To Go:
Arrived

Flight Plot

Page will automatically refresh every two minutes.

Flight plan parsing failed; only flown route is shown


Map Options




Map Legend


Flown Route
Filed Route
Departure Airport
Arrival Airport
Navaid (VOR, NDB)
Fix

Horizontal Profiles

Position Reports

Time Latitude Longitude Heading Altitude Ground
Speed
16-Oct-20 10:27 33.646572 -84.405700 337 1039ft 14kts
16-Oct-20 10:28 33.646628 -84.439703 271 1869ft 164kts
16-Oct-20 10:29 33.657073 -84.491105 296 3792ft 177kts
16-Oct-20 10:30 33.684731 -84.559769 299 5066ft 250kts
16-Oct-20 10:31 33.755939 -84.581462 355 7970ft 273kts
16-Oct-20 10:32 33.813664 -84.521194 89 10409ft 326kts
16-Oct-20 10:33 33.812660 -84.394992 89 11513ft 389kts
16-Oct-20 10:34 33.829342 -84.246710 76 12551ft 448kts
16-Oct-20 10:35 33.856002 -84.102244 76 14713ft 462kts
16-Oct-20 10:36 33.884693 -83.943508 75 16786ft 479kts
16-Oct-20 10:37 33.931700 -83.786538 64 18689ft 492kts
16-Oct-20 10:38 34.007943 -83.635393 48 20524ft 500kts
16-Oct-20 10:39 34.097494 -83.490976 49 22149ft 513kts
16-Oct-20 10:40 34.192096 -83.336879 50 23607ft 527kts
16-Oct-20 10:41 34.288906 -83.177200 49 25364ft 527kts
16-Oct-20 10:42 34.384520 -83.020457 49 26946ft 526kts
16-Oct-20 10:43 34.478015 -82.867367 50 28493ft 522kts
16-Oct-20 10:44 34.573464 -82.710135 51 29933ft 517kts
16-Oct-20 10:45 34.659314 -82.568207 51 30956ft 517kts
16-Oct-20 10:46 34.743027 -82.425999 51 31908ft 517kts
16-Oct-20 10:47 34.826763 -82.282642 52 32744ft 517kts
16-Oct-20 10:48 34.910205 -82.139398 52 33447ft 518kts
16-Oct-20 10:49 34.994708 -81.994201 52 33652ft 531kts
16-Oct-20 10:50 35.083221 -81.845786 49 33906ft 542kts
16-Oct-20 10:51 35.178283 -81.693929 50 34301ft 549kts
16-Oct-20 10:52 35.270818 -81.543874 49 34793ft 553kts
16-Oct-20 10:53 35.363835 -81.392272 49 35147ft 559kts
16-Oct-20 10:54 35.457261 -81.238944 50 35154ft 566kts
16-Oct-20 10:55 35.555789 -81.076931 50 35157ft 564kts
16-Oct-20 10:57 35.646107 -80.927693 51 35159ft 558kts
16-Oct-20 10:58 35.738492 -80.774356 51 35149ft 555kts
16-Oct-20 10:59 35.831169 -80.620027 51 35146ft 555kts
16-Oct-20 11:00 35.925436 -80.462439 51 35149ft 555kts
16-Oct-20 11:01 36.021083 -80.301603 52 35163ft 542kts
16-Oct-20 11:02 36.117911 -80.138603 52 35172ft 552kts
16-Oct-20 11:03 36.209557 -79.984175 52 35168ft 553kts
16-Oct-20 11:04 36.306684 -79.819039 52 35160ft 554kts
16-Oct-20 11:05 36.403345 -79.654039 52 35157ft 553kts
16-Oct-20 11:06 36.500375 -79.487563 52 35155ft 553kts
16-Oct-20 11:07 36.598260 -79.318923 53 35155ft 553kts
16-Oct-20 11:08 36.696314 -79.148592 53 35157ft 551kts
16-Oct-20 11:09 36.790402 -78.985069 53 35158ft 532kts
16-Oct-20 11:10 36.878952 -78.829359 54 35160ft 528kts
16-Oct-20 11:11 36.965247 -78.676450 54 35170ft 527kts
16-Oct-20 11:12 37.053707 -78.519390 55 35169ft 540kts
16-Oct-20 11:13 37.143832 -78.359001 56 35168ft 553kts
16-Oct-20 11:14 37.236962 -78.201594 50 35173ft 553kts
16-Oct-20 11:15 37.338969 -78.050436 50 35174ft 553kts
16-Oct-20 11:15 37.421923 -77.926477 50 35182ft 553kts
16-Oct-20 11:16 37.521222 -77.777213 50 35193ft 553kts
16-Oct-20 11:17 37.619844 -77.628269 50 35211ft 553kts
16-Oct-20 11:18 37.718485 -77.478686 50 35219ft 553kts
16-Oct-20 11:19 37.816848 -77.328757 51 35217ft 553kts
16-Oct-20 11:20 37.914972 -77.178042 50 35219ft 553kts
16-Oct-20 11:21 38.013049 -77.027306 51 35215ft 553kts
16-Oct-20 11:22 38.110053 -76.877549 50 35211ft 541kts
16-Oct-20 11:23 38.206759 -76.730945 45 35204ft 532kts
16-Oct-20 11:24 38.322518 -76.605556 34 35197ft 530kts
16-Oct-20 11:25 38.449477 -76.483467 34 35200ft 530kts
16-Oct-20 11:26 38.574474 -76.361631 34 35201ft 530kts
16-Oct-20 11:27 38.698278 -76.239846 35 35218ft 530kts
16-Oct-20 11:28 38.819640 -76.120344 35 35243ft 530kts
16-Oct-20 11:29 38.940572 -76.000878 35 35245ft 534kts
16-Oct-20 11:30 39.064561 -75.877892 36 35246ft 545kts
16-Oct-20 11:31 39.186940 -75.756099 36 35219ft 546kts
16-Oct-20 11:32 39.309934 -75.633052 36 35191ft 540kts
16-Oct-20 11:33 39.430901 -75.511326 36 35188ft 541kts
16-Oct-20 11:34 39.552540 -75.388399 36 35203ft 540kts
16-Oct-20 11:35 39.668364 -75.258801 47 35211ft 540kts
16-Oct-20 11:36 39.769739 -75.114340 48 35219ft 540kts
16-Oct-20 11:37 39.871235 -74.970205 48 35217ft 532kts
16-Oct-20 11:38 39.973874 -74.823778 48 35206ft 526kts
16-Oct-20 11:39 40.076600 -74.676479 48 35198ft 526kts
16-Oct-20 11:40 40.178290 -74.530676 47 35192ft 526kts
16-Oct-20 11:41 40.289591 -74.401728 37 35188ft 526kts
16-Oct-20 11:42 40.405118 -74.278605 39 35187ft 526kts
16-Oct-20 11:43 40.516069 -74.150168 50 35190ft 525kts
16-Oct-20 11:44 40.587050 -73.974306 77 35189ft 515kts
16-Oct-20 11:45 40.637921 -73.788246 64 35184ft 522kts
16-Oct-20 11:46 40.727255 -73.631121 47 35184ft 526kts
16-Oct-20 11:47 40.829762 -73.483425 48 35180ft 518kts
16-Oct-20 11:48 40.931222 -73.333562 49 32470ft 527kts
16-Oct-20 11:49 41.034631 -73.179841 50 29147ft 533kts
16-Oct-20 11:50 41.135441 -73.029923 50 25725ft 535kts
16-Oct-20 11:51 41.227003 -72.875350 63 23149ft 511kts
16-Oct-20 11:52 41.298901 -72.687382 66 23123ft 512kts
16-Oct-20 11:53 41.369877 -72.500317 66 23123ft 512kts
16-Oct-20 11:54 41.440811 -72.312484 67 23100ft 512kts
16-Oct-20 11:55 41.509911 -72.126621 67 20722ft 498kts
16-Oct-20 11:56 41.572707 -71.945492 72 18144ft 470kts
16-Oct-20 11:57 41.624353 -71.771095 73 16509ft 431kts
16-Oct-20 11:58 41.668859 -71.619929 73 15728ft 381kts
16-Oct-20 11:59 41.709363 -71.481326 73 14298ft 361kts
16-Oct-20 12:00 41.758747 -71.349849 64 12682ft 351kts
16-Oct-20 12:01 41.808783 -71.232732 64 11137ft 329kts
16-Oct-20 12:02 41.857672 -71.121446 62 9966ft 325kts
16-Oct-20 12:03 41.906202 -71.012239 64 8531ft 300kts
16-Oct-20 12:04 41.955094 -70.911020 58 7949ft 296kts
16-Oct-20 12:05 42.002636 -70.818493 57 7024ft 267kts
16-Oct-20 12:06 42.057230 -70.741852 46 6860ft 262kts
16-Oct-20 12:07 42.128604 -70.703037 2 5964ft 254kts
16-Oct-20 12:08 42.178930 -70.756006 307 5528ft 198kts
16-Oct-20 12:09 42.220682 -70.811487 308 3800ft 204kts
16-Oct-20 12:10 42.257985 -70.861584 309 2692ft 183kts
16-Oct-20 12:11 42.292906 -70.908627 311 1769ft 171kts
16-Oct-20 12:12 42.322379 -70.948231 313 959ft 138kts
16-Oct-20 12:13 42.349485 -70.984566 314 180ft 136kts
16-Oct-20 12:14 42.365548 -71.006635 298 16ft 26kts
16-Oct-20 12:15 42.366185 -71.012758 205 16ft 12kts
16-Oct-20 12:16 42.364095 -71.015078 300 19ft 11kts
16-Oct-20 12:17 42.364684 -71.017839 254 16ft 0kts
16-Oct-20 12:18 42.364684 -71.017839 254 16ft 0kts
16-Oct-20 12:19 42.364684 -71.017839 254 16ft 0kts
16-Oct-20 12:20 42.364684 -71.017839 254 16ft 0kts
16-Oct-20 12:21 42.364684 -71.017839 254 16ft 0kts
16-Oct-20 12:22 42.364684 -71.017839 254 16ft 0kts
16-Oct-20 12:23 42.364684 -71.017839 254 16ft 0kts
16-Oct-20 12:24 42.364684 -71.017839 254 16ft 0kts
16-Oct-20 12:25 42.364684 -71.017839 254 16ft 0kts
16-Oct-20 12:26 42.364684 -71.017839 254 16ft 0kts
16-Oct-20 12:27 42.364684 -71.017839 254 16ft 0kts
16-Oct-20 12:28 42.364684 -71.017839 254 16ft 0kts

Navigation Log

Ident Type
Flight plan parsing failed, navigation log unavailable